createdAt,value
2023-08-30T00:02:54.697Z,17.7
2023-08-30T00:08:16.049Z,17.6
2023-08-30T00:13:51.925Z,17.6
2023-08-30T00:19:12.340Z,17.5
2023-08-30T00:24:32.680Z,17.4
2023-08-30T00:29:53.917Z,17.3
2023-08-30T00:35:15.844Z,17.3
2023-08-30T00:40:36.483Z,17.2
2023-08-30T00:45:41.548Z,17.1
2023-08-30T00:51:19.213Z,17.1
2023-08-30T00:56:56.084Z,17.1
2023-08-30T01:02:34.991Z,17.1
2023-08-30T01:13:32.744Z,17.1
2023-08-30T01:18:53.724Z,17.1
2023-08-30T01:24:30.021Z,17.1
2023-08-30T01:30:06.315Z,17.1
2023-08-30T01:35:57.760Z,17.2
2023-08-30T01:41:33.762Z,17.3
2023-08-30T01:47:25.454Z,17.2
2023-08-30T01:53:16.500Z,17.1
2023-08-30T01:58:52.795Z,17.1
2023-08-30T02:04:44.562Z,17.1
2023-08-30T02:10:35.681Z,16.9
2023-08-30T02:16:13.707Z,16.9
2023-08-30T02:22:05.492Z,16.8
2023-08-30T02:27:45.933Z,16.6
2023-08-30T02:33:22.449Z,16.5
2023-08-30T02:38:59.063Z,16.3
2023-08-30T02:44:37.703Z,16.2
2023-08-30T02:50:13.927Z,16.1
2023-08-30T02:55:50.561Z,15.9
2023-08-30T03:01:42.010Z,15.8
2023-08-30T03:07:35.569Z,15.8
2023-08-30T03:13:27.749Z,15.7
2023-08-30T03:19:19.926Z,15.6
2023-08-30T03:25:11.073Z,15.6
2023-08-30T03:31:03.380Z,15.6
2023-08-30T03:36:54.907Z,15.4
2023-08-30T03:42:30.830Z,15.4
2023-08-30T03:47:52.641Z,15.3
2023-08-30T03:53:14.113Z,15.2
2023-08-30T03:58:35.267Z,15.1
2023-08-30T04:04:15.146Z,15.1
2023-08-30T04:09:36.801Z,15.3
2023-08-30T04:15:15.008Z,15.7
2023-08-30T04:20:54.944Z,16.4
2023-08-30T04:26:01.264Z,18.1
2023-08-30T04:31:22.646Z,20.7
2023-08-30T04:36:59.126Z,22.3
2023-08-30T04:43:02.142Z,22.4
2023-08-30T04:48:56.107Z,22.4
2023-08-30T04:54:48.770Z,21.9
2023-08-30T05:00:40.729Z,21.5
2023-08-30T05:06:32.885Z,21
2023-08-30T05:12:25.034Z,20.6
2023-08-30T05:18:19.871Z,20.3
2023-08-30T05:23:58.060Z,20.4
2023-08-30T05:29:49.489Z,21.4
2023-08-30T05:35:41.304Z,23.9
2023-08-30T05:41:34.628Z,26.3
2023-08-30T05:47:26.152Z,28.6
2023-08-30T05:53:17.497Z,31.1
2023-08-30T05:59:09.247Z,35.1
2023-08-30T06:05:03.537Z,39
2023-08-30T06:10:54.615Z,43.6
2023-08-30T06:16:45.030Z,35.9
2023-08-30T06:22:36.787Z,34.1
2023-08-30T06:28:28.782Z,36.2
2023-08-30T06:34:18.537Z,43.2
2023-08-30T06:40:12.984Z,36.4
2023-08-30T06:46:03.761Z,33.3
2023-08-30T06:51:41.144Z,33.5
2023-08-30T06:57:17.713Z,34.9
2023-08-30T07:02:54.033Z,36.7
2023-08-30T07:08:30.221Z,40.2
2023-08-30T07:14:24.377Z,43.6
2023-08-30T07:20:11.848Z,39.6
2023-08-30T07:25:48.531Z,43.4
2023-08-30T07:31:27.032Z,46.3
2023-08-30T07:37:36.743Z,47.7
2023-08-30T07:43:33.484Z,48.6
2023-08-30T07:49:25.613Z,45.9
2023-08-30T07:55:34.679Z,47.9
2023-08-30T08:01:26.782Z,51.1
2023-08-30T08:07:31.410Z,52.8
2023-08-30T08:13:22.949Z,52.5
2023-08-30T08:24:54.835Z,54.5
2023-08-30T08:30:46.424Z,56.1
2023-08-30T08:36:38.873Z,57.4
2023-08-30T08:42:43.904Z,57.1
2023-08-30T08:48:35.041Z,58.4
2023-08-30T08:54:35.393Z,58.9
2023-08-30T09:00:27.498Z,59.4
2023-08-30T09:06:39.275Z,60.6
2023-08-30T09:12:41.740Z,61.3
2023-08-30T09:18:33.534Z,61.6
2023-08-30T09:24:39.321Z,61.9
2023-08-30T09:30:31.173Z,63.1
2023-08-30T09:36:37.056Z,63.3
2023-08-30T09:42:28.454Z,64.3
2023-08-30T09:48:55.771Z,65.5
2023-08-30T10:32:05.346Z,65.8
2023-08-30T10:37:58.561Z,54.1
2023-08-30T10:43:48.792Z,51.5
2023-08-30T10:50:01.150Z,54.8
2023-08-30T10:55:53.948Z,59.6
2023-08-30T11:01:46.150Z,66.6
2023-08-30T11:07:39.126Z,64.9
2023-08-30T11:13:32.295Z,64.4
2023-08-30T11:19:23.505Z,60.4
2023-08-30T11:25:00.595Z,62.1
2023-08-30T11:30:37.870Z,65.2
2023-08-30T11:36:13.856Z,65.2
2023-08-30T11:41:33.961Z,62.6
2023-08-30T11:47:24.135Z,60.6
2023-08-30T11:53:08.368Z,60.8
2023-08-30T11:58:43.640Z,61.1
2023-08-30T12:04:37.305Z,62.1
2023-08-30T12:10:28.967Z,62.9
2023-08-30T12:16:19.959Z,62.4
2023-08-30T12:21:42.009Z,62.4
2023-08-30T12:27:33.536Z,62.4
2023-08-30T12:33:24.278Z,62.4
2023-08-30T12:39:04.918Z,61.9
2023-08-30T12:44:24.817Z,60.9
2023-08-30T12:50:01.496Z,61.2
2023-08-30T12:55:54.206Z,60.8
2023-08-30T13:01:31.064Z,61
2023-08-30T13:07:23.786Z,60.6
2023-08-30T13:13:01.007Z,60.1
2023-08-30T13:18:37.217Z,59.7
2023-08-30T13:24:06.808Z,59.1
2023-08-30T13:29:44.236Z,58.6
2023-08-30T13:35:21.316Z,58.9
2023-08-30T13:40:57.204Z,62.4
2023-08-30T13:46:39.006Z,63.9
2023-08-30T13:52:15.489Z,64.6
2023-08-30T13:57:51.413Z,61.3
2023-08-30T14:03:44.420Z,54.4
2023-08-30T14:09:22.836Z,53.5
2023-08-30T14:15:16.746Z,55
2023-08-30T14:21:09.953Z,53.9
2023-08-30T14:27:04.364Z,51.4
2023-08-30T14:32:40.506Z,48.9
2023-08-30T14:38:35.588Z,48.4
2023-08-30T14:44:12.328Z,48.3
2023-08-30T14:50:21.268Z,47.5
2023-08-30T14:56:15.544Z,46.9
2023-08-30T15:02:09.734Z,46.2
2023-08-30T15:08:02.116Z,45.2
2023-08-30T15:13:56.712Z,43.6
2023-08-30T15:19:49.302Z,41.9
2023-08-30T15:25:41.184Z,40.1
2023-08-30T15:31:33.873Z,38.7
2023-08-30T15:37:27.223Z,37.4
2023-08-30T15:43:02.584Z,36.6
2023-08-30T15:48:55.508Z,35.9
2023-08-30T15:54:44.447Z,35.2
2023-08-30T16:00:35.449Z,34.5
2023-08-30T16:06:32.033Z,34
2023-08-30T16:12:23.179Z,33.6
2023-08-30T16:18:14.511Z,33.2
2023-08-30T16:24:08.052Z,32.6
2023-08-30T16:29:59.820Z,31.9
2023-08-30T16:35:52.002Z,31.3
2023-08-30T16:41:47.943Z,30.5
2023-08-30T16:47:52.531Z,29.7
2023-08-30T16:53:54.972Z,28.8
2023-08-30T16:59:49.877Z,27.8
2023-08-30T17:05:42.804Z,26.8
2023-08-30T17:11:34.218Z,26
2023-08-30T17:17:30.424Z,25.4
2023-08-30T17:23:05.998Z,24.8
2023-08-30T17:28:41.637Z,24.4
2023-08-30T17:34:20.083Z,24
2023-08-30T17:40:17.452Z,23.6
2023-08-30T17:45:59.760Z,23.2
2023-08-30T17:51:38.359Z,22.9
2023-08-30T17:57:29.346Z,22.5
2023-08-30T18:03:21.289Z,22.3
2023-08-30T18:09:01.378Z,21.9
2023-08-30T18:14:52.811Z,21.6
2023-08-30T18:20:28.991Z,21.4
2023-08-30T18:31:43.793Z,20.9
2023-08-30T18:37:36.449Z,20.7
2023-08-30T18:43:40.217Z,20.5
2023-08-30T18:49:32.605Z,20.3
2023-08-30T18:55:10.469Z,20.1
2023-08-30T19:00:35.508Z,19.9
2023-08-30T19:06:13.628Z,19.7
2023-08-30T19:12:07.651Z,19.5
2023-08-30T19:18:03.104Z,19.3
2023-08-30T19:23:56.302Z,19.1
2023-08-30T19:29:33.585Z,18.9
2023-08-30T19:35:12.900Z,18.8
2023-08-30T19:41:05.430Z,18.6
2023-08-30T19:46:58.387Z,18.4
2023-08-30T19:52:52.298Z,18.3
2023-08-30T19:58:45.410Z,18.2
2023-08-30T20:04:41.410Z,18.1
2023-08-30T20:10:34.511Z,17.9
2023-08-30T20:16:25.985Z,17.9
2023-08-30T20:22:20.228Z,17.8
2023-08-30T20:27:59.717Z,17.6
2023-08-30T20:33:36.158Z,17.5
2023-08-30T20:39:35.220Z,17.3
2023-08-30T20:45:38.505Z,17.1
2023-08-30T20:57:05.923Z,16.9
2023-08-30T21:03:00.713Z,16.7
2023-08-30T21:08:52.800Z,16.6
2023-08-30T21:14:51.214Z,16.5
2023-08-30T21:20:13.171Z,16.4
2023-08-30T21:26:05.810Z,16.3
2023-08-30T21:31:58.195Z,16.3
2023-08-30T21:37:52.343Z,16.1
2023-08-30T21:43:45.098Z,16.1
2023-08-30T21:49:36.852Z,16.1
2023-08-30T21:55:29.866Z,16.1
2023-08-30T22:01:21.102Z,16.1
2023-08-30T22:07:13.767Z,16.1
2023-08-30T22:13:05.925Z,16.2
2023-08-30T22:19:03.235Z,16.1
2023-08-30T22:24:39.078Z,16.1
2023-08-30T22:30:31.268Z,16.1
2023-08-30T22:36:24.884Z,16
2023-08-30T22:42:16.436Z,15.9
2023-08-30T22:47:54.059Z,15.9
2023-08-30T22:53:55.767Z,15.8
2023-08-30T22:59:47.148Z,15.7
2023-08-30T23:05:41.096Z,15.6
2023-08-30T23:11:17.384Z,15.6
2023-08-30T23:17:09.000Z,15.6
2023-08-30T23:22:45.911Z,15.6
2023-08-30T23:28:21.982Z,15.6
2023-08-30T23:34:12.750Z,15.5
2023-08-30T23:40:08.047Z,15.5
2023-08-30T23:46:00.813Z,15.4
2023-08-30T23:51:53.278Z,15.4
2023-08-30T23:57:29.684Z,15.3
